createdAt,value
2022-09-26T00:01:44.837Z,16.63
2022-09-26T00:04:21.175Z,16.32
2022-09-26T00:06:52.014Z,15.37
2022-09-26T00:09:20.974Z,14.93
2022-09-26T00:11:49.553Z,14.81
2022-09-26T00:14:20.503Z,14.35
2022-09-26T00:16:50.815Z,15.16
2022-09-26T00:19:19.917Z,15.13
2022-09-26T00:21:48.680Z,14.69
2022-09-26T00:24:17.263Z,14.33
2022-09-26T00:26:45.894Z,14.77
2022-09-26T00:29:15.410Z,15.30
2022-09-26T00:31:46.264Z,15.10
2022-09-26T00:34:17.527Z,15.72
2022-09-26T00:36:46.074Z,16.12
2022-09-26T00:39:16.602Z,16.26
2022-09-26T00:41:45.638Z,16.27
2022-09-26T00:44:43.292Z,16.43
2022-09-26T00:47:34.011Z,16.58
2022-09-26T00:50:08.569Z,16.71
2022-09-26T00:52:40.995Z,15.19
2022-09-26T00:55:14.122Z,14.63
2022-09-26T00:57:46.479Z,15.02
2022-09-26T01:00:16.131Z,15.81
2022-09-26T01:02:46.781Z,14.74
2022-09-26T01:05:19.666Z,14.87
2022-09-26T01:07:48.514Z,15.66
2022-09-26T01:10:17.184Z,14.96
2022-09-26T01:12:46.068Z,15.00
2022-09-26T01:15:15.058Z,15.56
2022-09-26T01:17:45.552Z,14.60
2022-09-26T01:20:34.498Z,14.05
2022-09-26T01:23:58.307Z,15.01
2022-09-26T01:27:02.346Z,14.70
2022-09-26T01:30:06.135Z,14.50
2022-09-26T01:33:01.875Z,13.15
2022-09-26T01:35:47.263Z,13.17
2022-09-26T01:38:26.647Z,13.82
2022-09-26T01:41:22.935Z,14.74
2022-09-26T01:43:58.052Z,15.36
2022-09-26T01:46:33.499Z,15.30
2022-09-26T01:49:15.556Z,14.93
2022-09-26T01:51:50.579Z,14.56
2022-09-26T01:54:23.092Z,13.71
2022-09-26T01:56:54.518Z,14.50
2022-09-26T01:59:28.546Z,14.37
2022-09-26T02:02:07.607Z,13.77
2022-09-26T02:04:40.754Z,14.52
2022-09-26T02:07:13.824Z,14.03
2022-09-26T02:09:46.219Z,12.98
2022-09-26T02:12:20.131Z,14.51
2022-09-26T02:14:52.301Z,14.63
2022-09-26T02:17:29.839Z,13.60
2022-09-26T02:20:00.699Z,12.36
2022-09-26T02:22:32.513Z,13.16
2022-09-26T02:25:01.197Z,12.68
2022-09-26T02:27:30.266Z,12.37
2022-09-26T02:29:59.701Z,12.73
2022-09-26T02:32:31.966Z,12.37
2022-09-26T02:35:22.319Z,12.20
2022-09-26T02:37:51.350Z,12.92
2022-09-26T02:40:23.292Z,13.72
2022-09-26T02:43:02.876Z,13.54
2022-09-26T02:45:41.205Z,13.64
2022-09-26T02:48:28.912Z,13.31
2022-09-26T02:51:16.936Z,13.05
2022-09-26T02:54:02.515Z,12.73
2022-09-26T02:56:48.129Z,12.50
2022-09-26T03:06:59.207Z,13.54
2022-09-26T03:09:41.457Z,13.19
2022-09-26T03:12:11.191Z,12.75
2022-09-26T03:14:43.332Z,13.38
2022-09-26T03:17:12.674Z,13.31
2022-09-26T03:19:46.624Z,13.17
2022-09-26T03:22:18.047Z,13.76
2022-09-26T03:24:47.823Z,12.82
2022-09-26T03:27:17.771Z,12.16
2022-09-26T03:29:46.322Z,13.09
2022-09-26T03:32:14.886Z,13.59
2022-09-26T03:34:43.431Z,12.53
2022-09-26T03:37:12.363Z,12.85
2022-09-26T03:39:42.139Z,13.88
2022-09-26T03:42:10.627Z,12.93
2022-09-26T03:44:39.043Z,13.99
2022-09-26T03:47:07.627Z,13.29
2022-09-26T03:49:36.286Z,12.24
2022-09-26T03:52:04.841Z,12.42
2022-09-26T03:54:33.283Z,12.23
2022-09-26T03:57:03.089Z,12.45
2022-09-26T03:59:31.524Z,12.67
2022-09-26T04:02:00.029Z,12.20
2022-09-26T04:04:29.172Z,12.54
2022-09-26T04:06:57.621Z,13.09
2022-09-26T04:09:27.179Z,12.76
2022-09-26T04:11:55.977Z,13.19
2022-09-26T04:14:26.479Z,12.91
2022-09-26T04:16:54.978Z,11.89
2022-09-26T04:19:23.489Z,12.91
2022-09-26T04:21:52.170Z,13.98
2022-09-26T04:24:21.375Z,12.94
2022-09-26T04:26:49.941Z,13.71
2022-09-26T04:29:18.553Z,13.38
2022-09-26T04:31:48.465Z,13.42
2022-09-26T04:34:16.965Z,13.76
2022-09-26T04:36:45.474Z,13.86
2022-09-26T04:39:14.025Z,13.01
2022-09-26T04:41:42.612Z,14.01
2022-09-26T04:44:12.750Z,12.74
2022-09-26T04:46:41.181Z,11.81
2022-09-26T04:49:12.287Z,11.94
2022-09-26T04:51:40.869Z,12.86
2022-09-26T04:54:09.507Z,13.24
2022-09-26T04:56:37.963Z,12.86
2022-09-26T04:59:06.630Z,11.95
2022-09-26T05:01:35.352Z,12.55
2022-09-26T05:04:04.256Z,12.36
2022-09-26T05:06:34.088Z,12.24
2022-09-26T05:09:04.284Z,12.63
2022-09-26T05:11:33.257Z,12.64
2022-09-26T05:14:03.520Z,12.75
2022-09-26T05:16:32.222Z,13.08
2022-09-26T05:19:00.889Z,12.05
2022-09-26T05:21:29.326Z,11.99
2022-09-26T05:24:16.457Z,11.95
2022-09-26T05:26:47.703Z,12.48
2022-09-26T05:29:17.427Z,12.45
2022-09-26T05:31:46.280Z,12.64
2022-09-26T05:34:19.540Z,12.43
2022-09-26T05:36:48.514Z,11.61
2022-09-26T05:39:39.031Z,12.04
2022-09-26T05:42:10.703Z,11.71
2022-09-26T05:44:39.847Z,12.28
2022-09-26T05:47:08.711Z,11.67
2022-09-26T05:49:37.229Z,12.47
2022-09-26T05:52:05.738Z,12.43
2022-09-26T05:54:35.531Z,13.06
2022-09-26T05:57:04.032Z,12.95
2022-09-26T05:59:32.461Z,13.03
2022-09-26T06:02:00.992Z,12.66
2022-09-26T06:04:29.573Z,12.41
2022-09-26T06:06:58.048Z,12.83
2022-09-26T06:09:26.455Z,13.01
2022-09-26T06:11:56.712Z,13.03
2022-09-26T06:14:26.226Z,12.86
2022-09-26T06:16:54.807Z,12.48
2022-09-26T06:19:23.520Z,13.38
2022-09-26T06:21:52.159Z,12.26
2022-09-26T06:24:20.594Z,12.64
2022-09-26T06:26:49.094Z,12.53
2022-09-26T06:29:18.876Z,12.41
2022-09-26T06:31:47.426Z,11.89
2022-09-26T06:34:16.713Z,12.24
2022-09-26T06:36:46.986Z,13.53
2022-09-26T06:39:15.922Z,13.31
2022-09-26T06:41:44.753Z,13.07
2022-09-26T06:44:13.188Z,12.57
2022-09-26T06:46:43.053Z,12.05
2022-09-26T06:49:11.498Z,12.54
2022-09-26T06:51:39.941Z,12.47
2022-09-26T06:54:08.449Z,12.70
2022-09-26T06:56:36.964Z,12.31
2022-09-26T06:59:05.439Z,12.37
2022-09-26T07:01:34.094Z,12.89
2022-09-26T07:04:04.619Z,12.67
2022-09-26T07:06:33.093Z,12.20
2022-09-26T07:09:04.635Z,12.63
2022-09-26T07:11:56.371Z,12.83
2022-09-26T07:14:23.642Z,12.81
2022-09-26T07:16:52.559Z,12.56
2022-09-26T07:19:22.700Z,13.30
2022-09-26T07:21:51.281Z,13.19
2022-09-26T07:24:20.102Z,12.65
2022-09-26T07:26:48.599Z,12.43
2022-09-26T07:29:18.188Z,12.20
2022-09-26T07:31:46.687Z,11.95
2022-09-26T07:34:18.332Z,11.93
2022-09-26T07:36:48.802Z,12.73
2022-09-26T07:39:17.364Z,13.17
2022-09-26T07:41:46.778Z,12.59
2022-09-26T07:45:09.637Z,11.76
2022-09-26T07:47:21.530Z,12.39
2022-09-26T07:50:07.509Z,11.76
2022-09-26T07:52:37.329Z,12.87
2022-09-26T07:55:06.173Z,13.15
2022-09-26T07:57:35.462Z,12.15
2022-09-26T08:00:05.924Z,12.60
2022-09-26T08:02:35.864Z,12.62
2022-09-26T08:05:05.877Z,12.39
2022-09-26T08:07:36.843Z,12.97
2022-09-26T08:10:06.861Z,11.62
2022-09-26T08:12:39.876Z,11.75
2022-09-26T08:15:09.353Z,12.20
2022-09-26T08:17:38.360Z,12.61
2022-09-26T08:20:07.697Z,12.66
2022-09-26T08:22:37.514Z,12.43
2022-09-26T08:25:07.762Z,12.78
2022-09-26T08:27:36.637Z,12.02
2022-09-26T08:30:06.130Z,12.32
2022-09-26T08:32:34.860Z,11.29
2022-09-26T08:35:03.344Z,11.12
2022-09-26T08:37:32.058Z,11.78
2022-09-26T08:40:01.989Z,12.30
2022-09-26T08:42:41.802Z,11.68
2022-09-26T08:45:48.759Z,12.47
2022-09-26T08:48:29.199Z,12.33
2022-09-26T08:51:06.630Z,11.40
2022-09-26T08:53:43.421Z,11.91
2022-09-26T08:56:20.809Z,11.92
2022-09-26T08:58:53.182Z,11.25
2022-09-26T09:01:27.896Z,11.46
2022-09-26T09:04:02.544Z,11.69
2022-09-26T09:06:31.153Z,11.73
2022-09-26T09:08:59.930Z,11.90
2022-09-26T09:11:51.317Z,12.26
2022-09-26T09:14:34.545Z,11.94
2022-09-26T09:17:16.267Z,12.14
2022-09-26T09:19:54.127Z,12.08
2022-09-26T09:22:44.898Z,12.27
2022-09-26T09:25:19.615Z,12.55
2022-09-26T09:28:08.652Z,11.89
2022-09-26T09:30:42.383Z,11.73
2022-09-26T09:33:15.879Z,10.94
2022-09-26T09:35:48.248Z,10.81
2022-09-26T09:38:19.587Z,11.70
2022-09-26T09:40:53.898Z,12.21
2022-09-26T09:43:31.237Z,12.05
2022-09-26T09:46:04.316Z,12.53
2022-09-26T09:48:32.904Z,12.40
2022-09-26T09:51:13.346Z,12.27
2022-09-26T09:53:59.969Z,12.02
2022-09-26T09:56:41.020Z,12.50
2022-09-26T09:59:24.333Z,11.72
2022-09-26T10:02:01.102Z,12.03
2022-09-26T10:04:37.704Z,11.80
2022-09-26T10:07:06.380Z,11.95
2022-09-26T10:09:40.911Z,11.92
2022-09-26T10:12:17.035Z,12.31
2022-09-26T10:14:54.984Z,11.86
2022-09-26T10:17:24.697Z,12.12
2022-09-26T10:19:53.277Z,12.12
2022-09-26T10:22:29.377Z,12.36
2022-09-26T10:25:04.106Z,11.91
2022-09-26T10:27:37.785Z,11.44
2022-09-26T10:30:25.802Z,12.43
2022-09-26T10:32:57.060Z,13.48
2022-09-26T10:35:29.597Z,12.24
2022-09-26T10:38:03.252Z,12.60
2022-09-26T10:40:48.425Z,12.22
2022-09-26T10:43:30.586Z,12.16
2022-09-26T10:46:08.939Z,12.49
2022-09-26T10:48:48.388Z,13.09
2022-09-26T10:51:26.896Z,13.11
2022-09-26T10:54:03.908Z,13.32
2022-09-26T10:56:38.294Z,12.91
2022-09-26T10:59:09.945Z,12.75
2022-09-26T11:01:44.158Z,13.64
2022-09-26T11:04:36.021Z,14.14
2022-09-26T11:07:06.959Z,13.30
2022-09-26T11:09:35.921Z,13.68
2022-09-26T11:12:23.976Z,13.68
2022-09-26T11:14:56.928Z,13.95
2022-09-26T11:17:44.866Z,13.63
2022-09-26T11:20:32.395Z,13.56
2022-09-26T11:23:08.673Z,13.93
2022-09-26T11:25:50.129Z,13.53
2022-09-26T11:28:25.690Z,14.13
2022-09-26T11:30:59.113Z,13.63
2022-09-26T11:33:29.011Z,13.73
2022-09-26T11:36:11.055Z,14.01
2022-09-26T11:38:47.539Z,13.57
2022-09-26T11:41:42.074Z,13.40
2022-09-26T11:44:52.934Z,13.85
2022-09-26T11:48:08.810Z,14.52
2022-09-26T11:50:49.565Z,14.43
2022-09-26T11:53:49.164Z,13.41
2022-09-26T11:56:49.988Z,13.78
2022-09-26T11:59:38.342Z,13.69
2022-09-26T12:02:31.964Z,13.44
2022-09-26T12:05:13.833Z,13.27
2022-09-26T12:07:49.583Z,13.26
2022-09-26T12:10:35.146Z,13.30
2022-09-26T12:13:34.384Z,13.49
2022-09-26T12:16:12.666Z,13.56
2022-09-26T12:18:53.445Z,13.04
2022-09-26T12:21:33.102Z,13.00
2022-09-26T12:24:13.175Z,13.03
2022-09-26T12:26:53.515Z,13.12
2022-09-26T12:29:33.211Z,12.89
2022-09-26T12:32:22.764Z,13.11
2022-09-26T12:35:08.212Z,13.36
2022-09-26T12:37:52.901Z,13.42
2022-09-26T12:40:36.230Z,12.94
2022-09-26T12:43:31.832Z,13.93
2022-09-26T12:46:15.940Z,13.57
2022-09-26T12:49:01.964Z,13.64
2022-09-26T12:51:42.869Z,13.69
2022-09-26T12:54:49.793Z,13.03
2022-09-26T12:57:31.038Z,13.15
2022-09-26T13:00:12.623Z,13.07
2022-09-26T13:03:09.818Z,12.66
2022-09-26T13:06:12.898Z,12.57
2022-09-26T13:08:53.333Z,13.41
2022-09-26T13:11:32.230Z,13.46
2022-09-26T13:14:34.917Z,12.46
2022-09-26T13:17:10.223Z,13.17
2022-09-26T13:19:44.619Z,12.33
2022-09-26T13:22:32.898Z,12.05
2022-09-26T13:25:08.026Z,12.68
2022-09-26T13:27:41.813Z,12.93
2022-09-26T13:30:18.693Z,12.53
2022-09-26T13:33:00.175Z,12.29
2022-09-26T13:35:31.840Z,12.65
2022-09-26T13:38:15.960Z,12.60
2022-09-26T13:40:51.736Z,13.07
2022-09-26T13:43:36.552Z,12.93
2022-09-26T13:46:14.383Z,13.00
2022-09-26T13:48:51.923Z,12.24
2022-09-26T13:51:26.184Z,12.56
2022-09-26T13:54:05.054Z,12.73
2022-09-26T13:56:55.996Z,12.90
2022-09-26T13:59:50.177Z,13.66
2022-09-26T14:02:28.961Z,13.09
2022-09-26T14:05:28.628Z,13.37
2022-09-26T14:08:14.744Z,13.26
2022-09-26T14:10:53.636Z,12.81
2022-09-26T14:13:35.505Z,12.81
2022-09-26T14:16:05.801Z,12.15
2022-09-26T14:18:59.414Z,12.46
2022-09-26T14:21:41.252Z,12.07
2022-09-26T14:24:43.494Z,12.48
2022-09-26T14:27:42.940Z,12.40
2022-09-26T14:30:29.098Z,12.67
2022-09-26T14:33:03.260Z,12.37
2022-09-26T14:35:35.956Z,11.98
2022-09-26T14:38:10.466Z,12.12
2022-09-26T14:40:40.024Z,12.65
2022-09-26T14:43:15.141Z,12.11
2022-09-26T14:45:49.745Z,12.24
2022-09-26T14:48:32.170Z,12.53
2022-09-26T14:51:05.048Z,12.55
2022-09-26T14:53:40.295Z,11.56
2022-09-26T14:56:12.101Z,11.80
2022-09-26T14:58:50.054Z,11.63
2022-09-26T15:01:29.705Z,11.93
2022-09-26T15:04:02.959Z,12.13
2022-09-26T15:06:39.761Z,12.37
2022-09-26T15:09:11.880Z,11.95
2022-09-26T15:11:45.527Z,11.89
2022-09-26T15:14:24.167Z,12.44
2022-09-26T15:16:56.419Z,12.41
2022-09-26T15:19:29.184Z,11.59
2022-09-26T15:22:02.301Z,11.59
2022-09-26T15:24:33.414Z,11.74
2022-09-26T15:27:09.254Z,11.71
2022-09-26T15:29:43.240Z,11.92
2022-09-26T15:32:16.895Z,12.12
2022-09-26T15:34:46.821Z,12.75
2022-09-26T15:37:22.157Z,11.89
2022-09-26T15:39:51.160Z,11.88
2022-09-26T15:42:48.495Z,11.31
2022-09-26T15:45:30.362Z,12.17
2022-09-26T15:48:00.428Z,12.11
2022-09-26T15:50:34.482Z,11.83
2022-09-26T15:53:20.133Z,12.29
2022-09-26T15:55:54.287Z,12.56
2022-09-26T15:58:32.749Z,13.25
2022-09-26T16:01:01.780Z,12.65
2022-09-26T16:03:41.404Z,12.17
2022-09-26T16:06:22.071Z,12.30
2022-09-26T16:08:56.455Z,12.89
2022-09-26T16:11:25.718Z,12.31
2022-09-26T16:13:56.464Z,12.34
2022-09-26T16:16:32.016Z,12.00
2022-09-26T16:19:03.961Z,11.88
2022-09-26T16:21:36.575Z,11.68
2022-09-26T16:24:29.488Z,11.78
2022-09-26T16:26:58.307Z,11.84
2022-09-26T16:29:34.120Z,12.06
2022-09-26T16:32:03.975Z,11.72
2022-09-26T16:34:33.050Z,11.45
2022-09-26T16:37:01.528Z,11.64
2022-09-26T16:39:32.415Z,11.21
2022-09-26T16:42:05.704Z,11.78
2022-09-26T16:44:38.379Z,12.17
2022-09-26T16:47:18.910Z,11.92
2022-09-26T16:49:48.828Z,11.57
2022-09-26T16:52:29.367Z,11.91
2022-09-26T16:55:01.135Z,12.30
2022-09-26T16:57:31.496Z,12.50
2022-09-26T17:00:19.852Z,12.19
2022-09-26T17:02:48.814Z,11.57
2022-09-26T17:05:19.627Z,12.00
2022-09-26T17:07:49.698Z,12.40
2022-09-26T17:10:21.914Z,12.18
2022-09-26T17:12:52.933Z,11.80
2022-09-26T17:15:27.237Z,11.50
2022-09-26T17:17:56.912Z,11.57
2022-09-26T17:20:26.885Z,12.19
2022-09-26T17:22:55.715Z,12.05
2022-09-26T17:25:25.994Z,11.76
2022-09-26T17:27:59.617Z,11.59
2022-09-26T17:30:28.225Z,11.89
2022-09-26T17:32:58.926Z,11.79
2022-09-26T17:35:31.918Z,12.02
2022-09-26T17:38:01.582Z,11.99
2022-09-26T17:40:33.031Z,11.87
2022-09-26T17:43:02.234Z,12.05
2022-09-26T17:45:33.988Z,12.32
2022-09-26T17:48:05.229Z,12.31
2022-09-26T17:50:35.528Z,12.01
2022-09-26T17:53:04.933Z,12.22
2022-09-26T17:55:34.705Z,12.08
2022-09-26T17:58:09.377Z,11.34
2022-09-26T18:00:41.072Z,11.95
2022-09-26T18:03:18.927Z,11.88
2022-09-26T18:05:47.874Z,12.11
2022-09-26T18:08:26.649Z,11.48
2022-09-26T18:10:58.819Z,11.54
2022-09-26T18:13:31.426Z,11.55
2022-09-26T18:16:00.775Z,12.06
2022-09-26T18:18:30.965Z,11.15
2022-09-26T18:21:03.892Z,12.01
2022-09-26T18:23:41.622Z,11.86
2022-09-26T18:26:20.540Z,11.41
2022-09-26T18:28:48.964Z,12.67
2022-09-26T18:31:17.673Z,12.38
2022-09-26T18:33:46.092Z,11.62
2022-09-26T18:36:15.084Z,11.55
2022-09-26T18:38:43.473Z,11.45
2022-09-26T18:41:15.769Z,11.47
2022-09-26T18:43:44.285Z,11.79
2022-09-26T18:46:16.880Z,11.51
2022-09-26T18:48:46.531Z,12.63
2022-09-26T18:51:15.449Z,12.43
2022-09-26T18:53:44.384Z,11.98
2022-09-26T18:56:31.645Z,12.56
2022-09-26T18:59:00.869Z,12.60
2022-09-26T19:01:32.002Z,12.06
2022-09-26T19:04:03.592Z,12.37
2022-09-26T19:06:36.181Z,12.68
2022-09-26T19:09:07.598Z,13.38
2022-09-26T19:11:37.390Z,13.46
2022-09-26T19:14:14.388Z,13.27
2022-09-26T19:16:43.139Z,13.03
2022-09-26T19:19:12.042Z,12.50
2022-09-26T19:21:42.431Z,12.36
2022-09-26T19:24:21.068Z,12.30
2022-09-26T19:26:54.666Z,11.80
2022-09-26T19:29:29.547Z,12.38
2022-09-26T19:31:58.492Z,12.46
2022-09-26T19:34:32.352Z,12.36
2022-09-26T19:37:03.195Z,12.11
2022-09-26T19:39:32.417Z,12.14
2022-09-26T19:42:02.203Z,12.24
2022-09-26T19:44:30.606Z,12.00
2022-09-26T19:46:59.989Z,12.45
2022-09-26T19:49:31.203Z,11.94
2022-09-26T19:52:01.102Z,12.74
2022-09-26T19:54:30.061Z,11.85
2022-09-26T19:56:58.829Z,12.19
2022-09-26T19:59:28.588Z,11.52
2022-09-26T20:01:57.175Z,11.60
2022-09-26T20:04:25.835Z,12.50
2022-09-26T20:06:54.249Z,12.64
2022-09-26T20:09:22.664Z,12.96
2022-09-26T20:11:51.064Z,13.55
2022-09-26T20:14:25.649Z,12.93
2022-09-26T20:16:58.897Z,12.38
2022-09-26T20:19:35.361Z,12.97
2022-09-26T20:22:06.058Z,12.69
2022-09-26T20:24:37.007Z,12.60
2022-09-26T20:27:08.510Z,12.78
2022-09-26T20:29:51.493Z,13.50
2022-09-26T20:32:21.572Z,13.28
2022-09-26T20:34:50.041Z,12.73
2022-09-26T20:37:19.882Z,12.83
2022-09-26T20:39:48.541Z,12.62
2022-09-26T20:42:19.906Z,13.11
2022-09-26T20:44:51.112Z,13.60
2022-09-26T20:47:22.850Z,13.04
2022-09-26T20:49:55.753Z,13.26
2022-09-26T20:52:26.053Z,12.84
2022-09-26T20:54:55.260Z,12.87
2022-09-26T20:57:24.233Z,12.35
2022-09-26T20:59:52.746Z,12.28
2022-09-26T21:02:29.377Z,12.10
2022-09-26T21:05:00.197Z,11.95
2022-09-26T21:07:29.993Z,11.95
2022-09-26T21:09:58.945Z,12.18
2022-09-26T21:12:27.386Z,12.12
2022-09-26T21:14:55.817Z,12.06
2022-09-26T21:17:29.286Z,12.19
2022-09-26T21:19:57.920Z,11.59
2022-09-26T21:22:28.373Z,11.17
2022-09-26T21:24:56.880Z,12.21
2022-09-26T21:27:26.185Z,11.89
2022-09-26T21:29:54.609Z,11.36
2022-09-26T21:32:24.773Z,12.18
2022-09-26T21:34:59.131Z,11.88
2022-09-26T21:37:27.644Z,11.99
2022-09-26T21:39:56.258Z,11.92
2022-09-26T21:42:26.904Z,12.05
2022-09-26T21:44:58.949Z,11.60
2022-09-26T21:47:28.062Z,11.47
2022-09-26T21:49:58.005Z,12.30
2022-09-26T21:52:35.650Z,12.45
2022-09-26T21:55:06.253Z,12.47
2022-09-26T21:57:39.690Z,12.72
2022-09-26T22:00:10.056Z,12.77
2022-09-26T22:02:41.294Z,12.56
2022-09-26T22:05:13.198Z,11.77
2022-09-26T22:07:41.674Z,12.43
2022-09-26T22:10:10.639Z,12.36
2022-09-26T22:12:39.030Z,12.44
2022-09-26T22:15:08.459Z,12.60
2022-09-26T22:17:36.997Z,12.44
2022-09-26T22:20:06.515Z,12.37
2022-09-26T22:22:38.220Z,12.96
2022-09-26T22:25:07.687Z,12.48
2022-09-26T22:27:36.283Z,12.86
2022-09-26T22:30:05.124Z,12.76
2022-09-26T22:32:33.658Z,12.42
2022-09-26T22:35:02.158Z,12.33
2022-09-26T22:37:30.758Z,12.70
2022-09-26T22:40:00.531Z,12.45
2022-09-26T22:42:28.937Z,12.67
2022-09-26T22:44:57.431Z,13.04
2022-09-26T22:47:25.916Z,13.09
2022-09-26T22:49:54.329Z,13.05
2022-09-26T22:52:22.753Z,12.57
2022-09-26T22:54:51.136Z,12.67
2022-09-26T22:57:20.889Z,12.65
2022-09-26T22:59:49.341Z,12.66
2022-09-26T23:02:17.832Z,12.03
2022-09-26T23:04:48.894Z,12.36
2022-09-26T23:07:19.301Z,12.43
2022-09-26T23:09:47.749Z,12.83
2022-09-26T23:12:16.557Z,12.86
2022-09-26T23:14:46.311Z,12.68
2022-09-26T23:17:14.828Z,12.54
2022-09-26T23:22:19.868Z,12.79
2022-09-26T23:24:48.282Z,12.94
2022-09-26T23:27:16.737Z,13.18
2022-09-26T23:29:46.541Z,12.02
2022-09-26T23:32:14.989Z,12.51
2022-09-26T23:34:43.400Z,12.70
2022-09-26T23:37:11.829Z,12.61
2022-09-26T23:39:40.220Z,13.08
2022-09-26T23:42:09.188Z,12.71
2022-09-26T23:44:37.610Z,12.54
2022-09-26T23:47:07.993Z,11.99
2022-09-26T23:49:36.387Z,12.80
2022-09-26T23:52:04.808Z,13.08
2022-09-26T23:54:33.194Z,12.76
2022-09-26T23:57:01.894Z,12.92
2022-09-26T23:59:30.304Z,12.40
